Time;durP1;ratioP1;P1;durP2;ratioP2;P2;SDS_P1;SDS_P2;PMS_P1;PMS_P2;Temp;Humidity;BMP_temperature;BMP_pressure;BME280_temperature;BME280_humidity;BME280_pressure;Samples;Min_cycle;Max_cycle;Signal;HPM_P1;HPM_P2
2023/06/26 00:01:29;;;;;;;5.85;5.38;;;20.90;99.90;;;;;;6150201;23;20014;-80
2023/06/26 00:03:55;;;;;;;6.25;5.65;;;20.80;99.90;;;;;;6151393;23;20029;-81
2023/06/26 00:06:20;;;;;;;6.63;6.03;;;20.80;99.90;;;;;;6153679;23;20002;-81
2023/06/26 00:08:46;;;;;;;6.38;5.80;;;20.80;99.90;;;;;;6152124;23;20016;-80
2023/06/26 00:11:12;;;;;;;6.38;5.78;;;20.80;99.90;;;;;;6154586;23;20002;-81
2023/06/26 00:13:37;;;;;;;7.35;6.65;;;20.70;99.90;;;;;;6151877;23;20575;-81
2023/06/26 00:16:03;;;;;;;6.80;6.20;;;20.70;99.90;;;;;;6151023;23;20017;-80
2023/06/26 00:18:29;;;;;;;7.25;6.63;;;20.60;99.90;;;;;;6152177;23;20013;-81
2023/06/26 00:20:54;;;;;;;7.70;6.97;;;20.60;99.90;;;;;;6152074;23;20152;-81
2023/06/26 00:23:20;;;;;;;8.02;7.32;;;20.60;99.90;;;;;;6151774;23;20005;-81
2023/06/26 00:25:46;;;;;;;6.90;6.30;;;20.60;99.90;;;;;;6151139;23;20416;-80
2023/06/26 00:28:11;;;;;;;7.32;6.68;;;20.60;99.90;;;;;;6152479;23;20367;-81
2023/06/26 00:30:37;;;;;;;8.05;7.38;;;20.50;99.90;;;;;;6151266;23;20428;-80
2023/06/26 00:33:02;;;;;;;8.05;7.35;;;20.50;99.90;;;;;;6151875;23;20089;-80
2023/06/26 00:35:28;;;;;;;8.48;7.53;;;20.50;99.90;;;;;;6142702;23;20048;-81
2023/06/26 00:37:53;;;;;;;8.70;7.30;;;20.50;99.90;;;;;;6151696;23;20002;-81
2023/06/26 00:40:19;;;;;;;8.02;7.32;;;20.50;99.90;;;;;;6152117;23;20029;-80
2023/06/26 00:42:47;;;;;;;7.70;7.10;;;20.50;99.90;;;;;;6152027;23;20076;-80
2023/06/26 00:45:13;;;;;;;8.15;7.38;;;20.50;99.90;;;;;;6151659;23;20056;-81
2023/06/26 00:47:39;;;;;;;7.68;7.07;;;20.40;99.90;;;;;;6152059;23;20009;-80
2023/06/26 00:50:05;;;;;;;8.00;7.40;;;20.40;99.90;;;;;;6152361;23;20025;-80
2023/06/26 00:52:31;;;;;;;8.43;7.63;;;20.40;99.90;;;;;;6151723;23;20001;-81
2023/06/26 00:54:57;;;;;;;8.05;7.25;;;20.40;99.90;;;;;;6151472;23;20031;-81
2023/06/26 00:57:24;;;;;;;8.40;7.60;;;20.40;99.90;;;;;;6154220;23;20435;-81
2023/06/26 00:59:50;;;;;;;8.93;8.13;;;20.40;99.90;;;;;;6145777;23;20040;-81
2023/06/26 01:02:17;;;;;;;7.63;7.03;;;20.30;99.90;;;;;;6150498;23;20014;-81
2023/06/26 01:04:46;;;;;;;8.48;7.78;;;20.30;99.90;;;;;;6175593;23;20010;-81
2023/06/26 01:07:14;;;;;;;8.18;7.47;;;20.30;99.90;;;;;;6152412;23;20028;-81
2023/06/26 01:09:42;;;;;;;8.75;7.97;;;20.30;99.90;;;;;;6153258;23;20010;-80
2023/06/26 01:12:08;;;;;;;9.23;8.40;;;20.30;99.90;;;;;;6154418;23;20005;-81
2023/06/26 01:14:36;;;;;;;9.38;8.48;;;20.30;99.90;;;;;;6149847;23;20001;-81
2023/06/26 01:17:02;;;;;;;8.82;8.13;;;20.30;99.90;;;;;;6151980;23;20060;-80
2023/06/26 01:19:31;;;;;;;9.23;8.52;;;20.20;99.90;;;;;;6152106;23;20025;-81
2023/06/26 01:22:14;;;;;;;9.10;8.32;;;20.20;99.90;;;;;;6151193;23;20002;-80
2023/06/26 01:24:47;;;;;;;8.48;7.78;;;20.20;99.90;;;;;;6152650;23;20704;-81
2023/06/26 01:27:13;;;;;;;9.55;8.65;;;20.20;99.90;;;;;;6153726;23;20664;-81
2023/06/26 01:29:40;;;;;;;9.57;8.77;;;20.20;99.90;;;;;;6153255;23;20001;-80
2023/06/26 01:32:06;;;;;;;8.75;8.05;;;20.20;99.90;;;;;;6152813;23;20024;-80
2023/06/26 01:34:31;;;;;;;7.90;7.30;;;20.10;99.90;;;;;;6152657;23;20009;-81
2023/06/26 01:36:57;;;;;;;8.80;8.07;;;20.10;99.90;;;;;;6151735;23;20486;-81
2023/06/26 01:39:22;;;;;;;9.27;8.48;;;20.10;99.90;;;;;;6151326;23;20068;-81
2023/06/26 01:41:48;;;;;;;9.20;8.25;;;20.10;99.90;;;;;;6153618;23;20011;-81
2023/06/26 01:44:27;;;;;;;9.98;9.07;;;20.10;99.90;;;;;;6150140;23;20009;-81
2023/06/26 01:47:03;;;;;;;8.45;7.75;;;20.10;99.90;;;;;;6150888;23;20005;-81
2023/06/26 01:49:49;;;;;;;9.25;8.45;;;20.00;99.90;;;;;;6151348;23;20016;-80
2023/06/26 01:52:19;;;;;;;8.98;8.02;;;20.00;99.90;;;;;;6151188;23;20057;-81
2023/06/26 01:55:21;;;;;;;10.27;9.38;;;20.00;99.90;;;;;;6151019;23;20001;-81
2023/06/26 01:57:48;;;;;;;10.70;9.70;;;20.00;99.90;;;;;;6150075;23;20394;-80
2023/06/26 02:00:19;;;;;;;8.50;7.80;;;20.00;99.90;;;;;;6149221;23;20032;-81
2023/06/26 02:02:45;;;;;;;9.20;8.40;;;20.00;99.90;;;;;;6152651;23;20009;-81
2023/06/26 02:05:12;;;;;;;9.73;8.82;;;20.00;99.90;;;;;;6150057;23;20084;-81
2023/06/26 02:07:37;;;;;;;9.57;8.77;;;20.00;99.90;;;;;;6150527;23;20002;-81
2023/06/26 02:10:03;;;;;;;9.15;8.35;;;19.90;99.90;;;;;;6175892;23;20012;-81
2023/06/26 02:12:29;;;;;;;8.68;7.95;;;19.90;99.90;;;;;;6150401;23;20020;-81
2023/06/26 02:14:54;;;;;;;9.68;8.75;;;19.90;99.90;;;;;;6149712;23;20005;-81
2023/06/26 02:17:20;;;;;;;9.05;8.15;;;19.80;99.90;;;;;;6151530;23;20038;-80
2023/06/26 02:19:47;;;;;;;9.90;8.93;;;19.80;99.90;;;;;;6150828;23;20008;-81
2023/06/26 02:22:14;;;;;;;9.55;8.65;;;19.80;99.90;;;;;;6150861;23;20084;-80
2023/06/26 02:24:40;;;;;;;9.52;8.82;;;19.70;99.90;;;;;;6149921;23;20006;-81
2023/06/26 02:27:06;;;;;;;9.52;8.73;;;19.70;99.90;;;;;;6175720;23;20092;-80
2023/06/26 02:29:31;;;;;;;9.15;8.35;;;19.70;99.90;;;;;;6150248;23;20454;-80
2023/06/26 02:31:57;;;;;;;9.75;8.80;;;19.70;99.90;;;;;;6149687;23;20017;-81
2023/06/26 02:34:22;;;;;;;9.77;8.88;;;19.70;99.90;;;;;;6151171;23;20006;-80
2023/06/26 02:36:48;;;;;;;8.73;8.02;;;19.70;99.90;;;;;;6150198;23;20041;-80
2023/06/26 02:39:14;;;;;;;9.70;8.80;;;19.70;99.90;;;;;;6150702;23;20001;-80
2023/06/26 02:41:40;;;;;;;9.02;8.20;;;19.70;99.90;;;;;;6150697;23;20002;-81
2023/06/26 02:44:06;;;;;;;9.30;8.48;;;19.70;99.90;;;;;;6149312;23;20002;-81
2023/06/26 02:46:31;;;;;;;9.38;8.45;;;19.60;99.90;;;;;;6150176;23;20100;-81
2023/06/26 02:48:57;;;;;;;9.05;8.15;;;19.70;99.90;;;;;;6150661;23;20043;-81
2023/06/26 02:51:22;;;;;;;9.98;9.02;;;19.70;99.90;;;;;;6151257;23;20001;-81
2023/06/26 02:53:48;;;;;;;9.30;8.50;;;19.60;99.90;;;;;;6194048;23;20044;-81
2023/06/26 02:56:13;;;;;;;8.68;7.95;;;19.60;99.90;;;;;;6173340;23;20002;-81
2023/06/26 02:58:39;;;;;;;8.50;7.70;;;19.60;99.90;;;;;;6174429;23;20070;-80
2023/06/26 03:01:04;;;;;;;8.55;7.78;;;19.60;99.90;;;;;;6158843;23;20006;-82
2023/06/26 03:03:30;;;;;;;9.50;8.60;;;19.60;99.90;;;;;;6155266;23;20005;-81
2023/06/26 03:05:56;;;;;;;9.77;8.88;;;19.60;99.90;;;;;;6154121;23;20040;-81
2023/06/26 03:08:22;;;;;;;9.88;8.98;;;19.60;99.90;;;;;;6179225;23;20048;-81
2023/06/26 03:10:47;;;;;;;10.02;9.02;;;19.60;99.90;;;;;;6155552;23;20009;-81
2023/06/26 03:13:13;;;;;;;9.48;8.43;;;19.60;99.90;;;;;;6154024;23;20044;-81
2023/06/26 03:15:38;;;;;;;8.02;7.32;;;19.60;99.90;;;;;;6153813;23;20342;-81
2023/06/26 03:18:04;;;;;;;9.13;8.18;;;19.60;99.90;;;;;;6154433;23;20006;-81
2023/06/26 03:20:30;;;;;;;8.13;7.43;;;19.60;99.90;;;;;;6153906;23;20013;-81
2023/06/26 03:22:55;;;;;;;9.80;8.90;;;19.60;99.90;;;;;;6159196;23;19997;-80
2023/06/26 03:25:21;;;;;;;8.57;7.78;;;19.60;99.90;;;;;;6180266;23;20052;-81
2023/06/26 03:27:46;;;;;;;8.73;7.88;;;19.60;99.90;;;;;;6153625;23;20136;-81
2023/06/26 03:30:12;;;;;;;9.10;8.30;;;19.60;99.90;;;;;;6155409;23;20002;-81
2023/06/26 03:32:38;;;;;;;8.60;7.70;;;19.60;99.90;;;;;;6152895;23;20017;-81
2023/06/26 03:35:04;;;;;;;8.70;7.90;;;19.60;99.90;;;;;;6152418;23;20073;-81
2023/06/26 03:37:29;;;;;;;9.05;8.25;;;19.60;99.90;;;;;;6153323;23;20008;-81
2023/06/26 03:39:55;;;;;;;9.40;8.60;;;19.60;99.90;;;;;;6153499;23;20428;-81
2023/06/26 03:42:20;;;;;;;9.63;8.63;;;19.60;99.90;;;;;;6152229;23;20010;-82
2023/06/26 03:44:46;;;;;;;8.73;8.02;;;19.60;99.90;;;;;;6151547;23;20012;-81
2023/06/26 03:47:11;;;;;;;8.20;7.43;;;19.60;99.90;;;;;;6154409;23;20013;-80
2023/06/26 03:49:37;;;;;;;8.93;8.13;;;19.60;99.90;;;;;;6152233;23;20020;-80
2023/06/26 03:52:02;;;;;;;7.85;7.15;;;19.70;99.90;;;;;;6177773;23;20447;-81
2023/06/26 03:54:28;;;;;;;9.07;8.27;;;19.70;99.90;;;;;;6176025;23;20021;-80
2023/06/26 03:56:53;;;;;;;8.15;7.45;;;19.60;99.90;;;;;;6151517;23;20002;-81
2023/06/26 03:59:19;;;;;;;9.20;7.07;;;19.70;99.90;;;;;;6150140;23;20005;-80
2023/06/26 04:01:44;;;;;;;8.52;7.72;;;19.70;99.90;;;;;;6151444;23;20025;-81
2023/06/26 04:04:10;;;;;;;7.97;7.18;;;19.70;99.90;;;;;;6151567;23;20001;-81
2023/06/26 04:06:36;;;;;;;8.65;7.85;;;19.70;99.90;;;;;;6153306;23;20504;-80
2023/06/26 04:09:01;;;;;;;8.15;7.35;;;19.70;99.90;;;;;;6154312;23;20002;-81
2023/06/26 04:11:27;;;;;;;8.13;7.50;;;19.70;99.90;;;;;;6152619;23;20388;-80
2023/06/26 04:13:52;;;;;;;8.82;7.75;;;19.70;99.90;;;;;;6152060;23;20006;-80
2023/06/26 04:16:19;;;;;;;8.65;7.82;;;19.70;99.90;;;;;;6153446;23;20089;-81
2023/06/26 04:18:44;;;;;;;8.23;7.47;;;19.80;99.90;;;;;;6153283;23;20009;-81
2023/06/26 04:21:12;;;;;;;7.93;7.13;;;19.80;99.90;;;;;;6155485;23;20495;-81
2023/06/26 04:23:39;;;;;;;6.85;6.35;;;19.80;99.90;;;;;;6157220;23;20028;-81
2023/06/26 04:26:05;;;;;;;7.53;6.85;;;19.80;99.90;;;;;;6153658;23;20092;-81
2023/06/26 04:28:32;;;;;;;8.27;7.57;;;19.80;99.90;;;;;;6151195;23;20079;-81
2023/06/26 04:30:59;;;;;;;8.90;8.00;;;19.90;99.90;;;;;;6151004;23;20533;-81
2023/06/26 04:33:25;;;;;;;10.20;7.32;;;19.90;99.90;;;;;;6154725;23;20040;-82
2023/06/26 04:35:51;;;;;;;7.63;6.93;;;19.90;99.90;;;;;;6148610;23;20085;-82
2023/06/26 04:38:17;;;;;;;7.80;7.00;;;19.90;99.90;;;;;;6151538;23;20140;-81
2023/06/26 04:40:42;;;;;;;9.10;7.85;;;19.90;99.90;;;;;;6152441;23;19997;-82
2023/06/26 04:43:08;;;;;;;8.10;7.35;;;20.00;99.90;;;;;;6152849;23;20009;-82
2023/06/26 04:45:33;;;;;;;8.82;7.50;;;20.00;99.90;;;;;;6150782;23;20006;-81
2023/06/26 04:48:00;;;;;;;7.22;6.63;;;20.00;99.90;;;;;;6151468;23;20005;-81
2023/06/26 04:50:25;;;;;;;7.50;6.90;;;20.10;99.90;;;;;;6153280;23;20060;-81
2023/06/26 04:52:51;;;;;;;8.27;7.57;;;20.10;99.90;;;;;;6151229;23;20009;-83
2023/06/26 04:55:17;;;;;;;7.35;6.75;;;20.10;99.90;;;;;;6152786;23;20012;-82
2023/06/26 04:57:42;;;;;;;8.52;7.72;;;20.10;99.90;;;;;;6149782;23;20008;-82
2023/06/26 05:00:10;;;;;;;7.78;7.07;;;20.20;99.90;;;;;;6150555;23;20475;-82
2023/06/26 05:02:36;;;;;;;8.25;7.10;;;20.20;99.90;;;;;;6155034;23;20081;-82
2023/06/26 05:05:02;;;;;;;8.18;7.38;;;20.30;99.90;;;;;;6151842;23;20002;-80
2023/06/26 05:07:27;;;;;;;7.90;7.18;;;20.30;99.90;;;;;;6151809;23;20012;-80
2023/06/26 05:09:53;;;;;;;8.52;7.63;;;20.40;99.90;;;;;;6153659;23;20018;-82
2023/06/26 05:12:19;;;;;;;8.55;7.75;;;20.40;99.90;;;;;;6151525;23;20033;-82
2023/06/26 05:14:45;;;;;;;8.63;7.72;;;20.50;99.90;;;;;;6150777;23;20010;-81
2023/06/26 05:17:10;;;;;;;8.15;7.45;;;20.50;99.90;;;;;;6151552;23;20005;-83
2023/06/26 05:19:36;;;;;;;7.82;7.13;;;20.60;99.90;;;;;;6151657;23;20324;-81
2023/06/26 05:22:07;;;;;;;7.85;7.15;;;20.60;99.90;;;;;;6151487;23;20331;-82
2023/06/26 05:24:37;;;;;;;7.80;7.03;;;20.70;99.90;;;;;;6150700;23;20005;-82
2023/06/26 05:27:03;;;;;;;7.60;6.93;;;20.80;99.90;;;;;;6153106;23;20005;-82
2023/06/26 05:29:31;;;;;;;7.03;6.43;;;20.80;99.90;;;;;;6151556;23;20039;-82
2023/06/26 05:31:57;;;;;;;7.53;6.82;;;20.90;99.90;;;;;;6150549;23;20030;-81
2023/06/26 05:34:24;;;;;;;7.80;7.10;;;21.00;99.90;;;;;;6150020;23;20020;-81
2023/06/26 05:36:51;;;;;;;7.82;7.13;;;21.10;99.90;;;;;;6153156;23;20013;-81
2023/06/26 05:39:18;;;;;;;8.55;7.82;;;21.20;99.90;;;;;;6150248;23;20001;-82
2023/06/26 05:41:44;;;;;;;7.78;7.13;;;21.20;99.90;;;;;;6150768;23;20045;-83
2023/06/26 05:44:10;;;;;;;12.52;6.85;;;21.40;99.90;;;;;;6153358;23;20076;-82
2023/06/26 05:46:36;;;;;;;7.18;6.47;;;21.40;99.90;;;;;;6151898;23;20040;-81
2023/06/26 05:49:01;;;;;;;7.65;6.97;;;21.60;99.90;;;;;;6151217;23;20012;-82
2023/06/26 05:51:28;;;;;;;7.15;6.45;;;21.70;99.90;;;;;;6151891;23;20010;-81
2023/06/26 05:53:54;;;;;;;7.20;6.60;;;21.90;99.90;;;;;;6153203;23;20002;-82
2023/06/26 05:56:19;;;;;;;7.38;6.68;;;22.10;99.90;;;;;;6151009;23;20036;-82
2023/06/26 05:58:46;;;;;;;7.70;6.90;;;22.20;99.90;;;;;;6152206;23;20006;-82
2023/06/26 06:01:12;;;;;;;7.05;6.45;;;22.30;99.90;;;;;;6151085;23;20060;-83
2023/06/26 06:03:39;;;;;;;6.88;6.22;;;22.50;99.90;;;;;;6157633;23;20005;-82
2023/06/26 06:06:05;;;;;;;5.95;5.45;;;22.60;99.90;;;;;;6151236;23;20009;-81
2023/06/26 06:08:30;;;;;;;9.75;6.50;;;22.80;99.90;;;;;;6151582;23;20288;-82
2023/06/26 06:10:56;;;;;;;6.72;6.13;;;22.90;99.90;;;;;;6152150;23;20012;-81
2023/06/26 06:13:22;;;;;;;7.13;6.40;;;23.10;99.90;;;;;;6154222;23;20017;-84
2023/06/26 06:15:47;;;;;;;7.15;5.85;;;23.20;99.90;;;;;;6151133;23;20010;-82
2023/06/26 06:18:13;;;;;;;6.72;6.13;;;23.30;99.90;;;;;;6152734;23;20086;-83
2023/06/26 06:20:38;;;;;;;7.00;6.30;;;23.50;99.90;;;;;;6151986;23;20006;-81
2023/06/26 06:23:04;;;;;;;6.32;5.72;;;23.60;99.90;;;;;;6151896;23;20005;-82
2023/06/26 06:25:29;;;;;;;6.78;6.18;;;23.70;99.90;;;;;;6176174;23;20206;-82
2023/06/26 06:27:55;;;;;;;6.68;6.00;;;23.80;99.90;;;;;;6152963;23;20076;-83
2023/06/26 06:30:21;;;;;;;7.03;6.32;;;24.00;99.90;;;;;;6152813;23;20006;-82
2023/06/26 06:32:50;;;;;;;6.57;5.97;;;24.10;99.90;;;;;;6153121;23;20045;-83
2023/06/26 06:35:17;;;;;;;8.52;6.18;;;24.20;99.90;;;;;;6153256;23;20014;-82
2023/06/26 06:37:42;;;;;;;7.15;6.45;;;24.40;99.90;;;;;;6153506;23;20001;-81
2023/06/26 06:40:09;;;;;;;6.25;5.65;;;24.50;99.90;;;;;;6153268;23;20005;-81
2023/06/26 06:42:35;;;;;;;5.90;5.40;;;24.60;99.90;;;;;;6155051;23;19998;-82
2023/06/26 06:45:05;;;;;;;6.90;6.07;;;24.80;99.90;;;;;;6152854;23;20016;-82
2023/06/26 06:47:32;;;;;;;6.40;5.80;;;24.90;99.90;;;;;;6154238;23;20089;-80
2023/06/26 06:49:58;;;;;;;6.82;5.95;;;25.00;99.90;;;;;;6154302;23;20029;-83
2023/06/26 06:52:24;;;;;;;6.72;6.10;;;25.20;99.90;;;;;;6155534;23;20028;-80
2023/06/26 06:54:54;;;;;;;5.97;5.47;;;25.20;99.90;;;;;;6179159;23;20104;-80
2023/06/26 06:57:20;;;;;;;6.32;5.72;;;25.30;99.90;;;;;;6153559;23;20107;-82
2023/06/26 06:59:47;;;;;;;6.80;6.03;;;25.40;99.90;;;;;;6154423;23;20001;-84
2023/06/26 07:02:13;;;;;;;6.32;5.47;;;25.40;99.90;;;;;;6160183;23;20020;-80
2023/06/26 07:04:38;;;;;;;6.43;5.75;;;25.40;99.90;;;;;;6160892;23;20029;-82
2023/06/26 07:07:04;;;;;;;5.95;5.45;;;25.60;99.90;;;;;;6154953;23;20005;-81
2023/06/26 07:09:30;;;;;;;16.58;6.47;;;25.70;99.90;;;;;;6152363;23;20002;-83
2023/06/26 07:11:55;;;;;;;5.90;5.40;;;25.90;99.90;;;;;;6152435;23;20346;-82
2023/06/26 07:14:21;;;;;;;6.10;5.38;;;26.00;99.90;;;;;;6153656;23;20001;-81
2023/06/26 07:16:46;;;;;;;5.88;5.38;;;26.10;99.90;;;;;;6157184;23;20001;-80
2023/06/26 07:19:12;;;;;;;6.15;5.55;;;26.30;99.90;;;;;;6169005;23;20013;-83
2023/06/26 07:21:37;;;;;;;5.60;5.20;;;26.30;99.90;;;;;;6169816;23;20002;-80
2023/06/26 07:24:03;;;;;;;8.20;6.07;;;26.40;99.90;;;;;;6185277;23;20016;-83
2023/06/26 07:26:28;;;;;;;6.43;5.82;;;26.60;99.90;;;;;;6156723;23;20017;-83
2023/06/26 07:28:56;;;;;;;6.95;5.95;;;26.80;99.90;;;;;;6154452;23;20021;-81
2023/06/26 07:31:22;;;;;;;6.15;5.25;;;26.90;99.90;;;;;;6177000;23;20078;-81
2023/06/26 07:33:47;;;;;;;6.95;5.90;;;27.10;99.90;;;;;;6153086;23;20009;-81
2023/06/26 07:36:13;;;;;;;6.35;5.72;;;27.10;99.90;;;;;;6154269;23;20044;-82
2023/06/26 07:38:39;;;;;;;6.95;5.90;;;27.30;99.90;;;;;;6155424;23;20005;-83
2023/06/26 07:41:04;;;;;;;5.68;5.28;;;27.30;99.90;;;;;;6154355;23;20024;-83
2023/06/26 07:43:30;;;;;;;6.63;6.03;;;27.50;99.90;;;;;;6160527;23;20005;-81
2023/06/26 07:45:58;;;;;;;6.22;5.72;;;27.60;99.80;;;;;;6152764;23;20032;-81
2023/06/26 07:48:24;;;;;;;7.03;6.20;;;27.70;99.90;;;;;;6151492;23;20006;-82
2023/06/26 07:50:50;;;;;;;6.15;5.65;;;27.90;99.90;;;;;;6152337;23;20001;-83
2023/06/26 07:53:15;;;;;;;6.32;5.82;;;28.00;99.60;;;;;;6152844;23;20006;-82
2023/06/26 07:55:41;;;;;;;6.72;6.00;;;28.10;99.90;;;;;;6154659;23;20005;-83
2023/06/26 07:58:07;;;;;;;11.15;6.65;;;28.20;99.90;;;;;;6153437;23;20050;-83
2023/06/26 08:00:33;;;;;;;6.85;5.82;;;28.40;99.60;;;;;;6154348;23;20052;-83
2023/06/26 08:02:58;;;;;;;9.02;6.22;;;28.30;98.40;;;;;;6154009;23;20388;-82
2023/06/26 08:05:27;;;;;;;7.47;6.45;;;28.30;98.50;;;;;;6152430;23;20056;-82
2023/06/26 08:07:53;;;;;;;7.82;6.32;;;28.40;99.10;;;;;;6152037;23;20006;-81
2023/06/26 08:10:18;;;;;;;6.38;5.78;;;28.50;98.90;;;;;;6152150;23;20128;-82
2023/06/26 08:12:45;;;;;;;16.25;7.22;;;28.50;98.40;;;;;;6152426;23;20044;-81
2023/06/26 08:15:11;;;;;;;8.88;6.30;;;28.50;98.40;;;;;;6151214;23;20001;-80
2023/06/26 08:17:38;;;;;;;6.25;5.63;;;28.60;98.60;;;;;;6176864;23;20682;-83
2023/06/26 08:20:04;;;;;;;6.07;5.57;;;28.50;98.60;;;;;;6152009;23;20031;-81
2023/06/26 08:22:30;;;;;;;6.80;6.20;;;28.60;98.60;;;;;;6176289;23;20009;-82
2023/06/26 08:24:56;;;;;;;7.20;6.50;;;28.60;98.40;;;;;;6151537;23;20101;-82
2023/06/26 08:27:21;;;;;;;6.35;5.75;;;28.60;98.70;;;;;;6152028;23;20012;-81
2023/06/26 08:29:47;;;;;;;6.97;6.30;;;28.80;98.00;;;;;;6152196;23;20006;-80
2023/06/26 08:32:12;;;;;;;7.18;6.03;;;28.90;97.70;;;;;;6150116;23;20104;-82
2023/06/26 08:34:38;;;;;;;6.00;5.50;;;29.10;98.10;;;;;;6150075;23;20629;-80
2023/06/26 08:37:04;;;;;;;6.30;5.70;;;29.20;97.70;;;;;;6151192;23;20579;-82
2023/06/26 08:39:29;;;;;;;7.53;5.60;;;29.20;98.00;;;;;;6151361;23;20020;-82
2023/06/26 08:41:55;;;;;;;6.28;5.78;;;29.20;97.00;;;;;;6177107;23;20054;-82
2023/06/26 08:44:24;;;;;;;7.18;6.05;;;29.40;96.70;;;;;;6150534;23;20478;-81
2023/06/26 08:46:51;;;;;;;6.80;6.20;;;29.50;97.40;;;;;;6152956;23;20064;-82
2023/06/26 08:49:42;;;;;;;8.02;6.13;;;29.50;97.60;;;;;;6149125;23;20010;-82
2023/06/26 08:52:19;;;;;;;8.60;6.18;;;29.40;98.20;;;;;;6109941;23;20009;-82
2023/06/26 08:54:47;;;;;;;9.48;6.97;;;29.20;97.60;;;;;;6152179;23;20009;-80
2023/06/26 08:57:17;;;;;;;12.57;7.32;;;29.10;97.70;;;;;;6151306;23;20006;-83
2023/06/26 08:59:43;;;;;;;5.93;5.43;;;29.00;97.40;;;;;;6152498;23;20001;-83
2023/06/26 09:02:09;;;;;;;6.18;5.63;;;29.00;97.20;;;;;;6151993;23;20077;-81
2023/06/26 09:04:35;;;;;;;7.53;5.85;;;28.80;95.90;;;;;;6150567;23;20420;-81
2023/06/26 09:07:01;;;;;;;6.70;6.10;;;28.80;96.30;;;;;;6151141;23;20051;-82
2023/06/26 09:09:27;;;;;;;6.60;5.97;;;28.60;97.00;;;;;;6152025;23;20005;-81
2023/06/26 09:11:52;;;;;;;8.30;6.13;;;28.60;97.00;;;;;;6151145;23;20002;-84
2023/06/26 09:14:18;;;;;;;7.07;6.43;;;28.70;98.20;;;;;;6150980;23;20006;-81
2023/06/26 09:16:45;;;;;;;8.10;7.30;;;28.80;97.50;;;;;;6175784;23;20029;-83
2023/06/26 09:19:12;;;;;;;7.97;7.25;;;28.80;97.30;;;;;;6150905;23;20017;-80
2023/06/26 09:21:42;;;;;;;9.23;8.23;;;28.60;97.00;;;;;;6150719;23;20006;-83
2023/06/26 09:24:09;;;;;;;9.18;8.23;;;28.40;97.60;;;;;;6149651;23;20017;-82
2023/06/26 09:26:37;;;;;;;8.23;7.43;;;28.30;97.90;;;;;;6152518;23;20037;-81
2023/06/26 09:29:03;;;;;;;9.20;8.30;;;28.10;98.00;;;;;;6152064;23;20216;-83
2023/06/26 09:31:29;;;;;;;9.55;7.18;;;28.00;98.10;;;;;;6150789;23;20665;-82
2023/06/26 09:33:59;;;;;;;9.10;8.20;;;27.90;98.50;;;;;;6150151;23;20374;-82
2023/06/26 09:36:28;;;;;;;13.68;8.93;;;27.80;98.60;;;;;;6149527;23;20412;-79
2023/06/26 09:38:54;;;;;;;10.52;8.27;;;27.60;98.60;;;;;;6151783;23;19998;-82
2023/06/26 09:41:20;;;;;;;13.88;7.65;;;27.00;98.80;;;;;;6152611;23;20355;-82
2023/06/26 09:43:49;;;;;;;7.93;6.90;;;26.60;99.40;;;;;;6151598;23;19997;-82
2023/06/26 09:46:27;;;;;;;11.35;7.97;;;26.20;99.90;;;;;;6151670;23;20009;-81
2023/06/26 09:49:04;;;;;;;12.23;7.65;;;25.90;99.90;;;;;;6151304;23;20036;-82
2023/06/26 09:51:34;;;;;;;11.77;8.50;;;25.60;99.90;;;;;;6149963;23;20020;-80
2023/06/26 09:54:01;;;;;;;8.38;7.53;;;25.30;99.90;;;;;;6150117;23;20006;-82
2023/06/26 09:56:28;;;;;;;9.05;7.88;;;25.00;99.90;;;;;;6150247;23;20444;-81
2023/06/26 09:58:57;;;;;;;10.70;7.78;;;25.00;99.90;;;;;;6150054;23;20001;-81
2023/06/26 10:01:23;;;;;;;8.48;7.60;;;24.80;99.90;;;;;;6151964;23;20013;-79
2023/06/26 10:03:49;;;;;;;7.72;6.35;;;24.90;99.90;;;;;;6150411;23;20474;-79
2023/06/26 10:06:19;;;;;;;11.80;7.68;;;24.90;99.90;;;;;;6151995;23;20006;-81
2023/06/26 10:08:45;;;;;;;8.43;7.70;;;24.70;99.90;;;;;;6152832;23;20013;-81
2023/06/26 10:11:15;;;;;;;11.85;9.38;;;24.60;99.90;;;;;;6153660;23;20442;-79
2023/06/26 10:13:46;;;;;;;9.57;7.97;;;24.40;99.90;;;;;;6177339;23;20163;-81
2023/06/26 10:16:13;;;;;;;12.88;8.50;;;24.30;99.90;;;;;;6152770;23;20006;-81
2023/06/26 10:18:40;;;;;;;15.90;9.50;;;24.20;99.90;;;;;;6153471;23;20009;-83
2023/06/26 10:21:07;;;;;;;11.95;8.93;;;24.10;99.90;;;;;;6152721;23;20093;-78
2023/06/26 10:23:35;;;;;;;13.18;9.77;;;24.00;99.90;;;;;;6152767;23;20101;-81
2023/06/26 10:26:00;;;;;;;10.45;9.48;;;23.90;99.90;;;;;;6153826;23;20002;-80
2023/06/26 10:28:29;;;;;;;14.15;10.52;;;23.70;99.90;;;;;;6153615;23;20020;-79
2023/06/26 10:30:56;;;;;;;15.80;10.75;;;23.40;99.90;;;;;;6153040;23;20010;-79
2023/06/26 10:33:22;;;;;;;13.20;10.30;;;23.30;99.90;;;;;;6151770;23;20018;-78
2023/06/26 10:35:48;;;;;;;11.63;10.43;;;23.20;99.90;;;;;;6150133;23;20420;-78
2023/06/26 10:38:13;;;;;;;10.55;9.00;;;23.00;99.90;;;;;;6152976;23;20004;-77
2023/06/26 10:40:48;;;;;;;9.75;6.95;;;22.80;99.90;;;;;;6152641;23;20009;-79
2023/06/26 10:43:15;;;;;;;7.75;6.95;;;22.70;99.90;;;;;;6152835;23;19997;-79
2023/06/26 10:45:54;;;;;;;6.78;5.97;;;22.50;99.90;;;;;;6150948;23;20002;-78
2023/06/26 10:48:20;;;;;;;6.47;5.45;;;22.40;99.90;;;;;;6152740;23;20070;-78
2023/06/26 10:50:48;;;;;;;5.90;4.95;;;22.30;99.90;;;;;;6152257;23;20005;-78
2023/06/26 10:53:20;;;;;;;4.90;4.50;;;22.20;99.90;;;;;;6152394;23;20005;-78
2023/06/26 10:56:00;;;;;;;8.88;5.95;;;22.10;99.90;;;;;;6151206;23;20009;-78
2023/06/26 10:58:31;;;;;;;6.68;5.43;;;22.10;99.90;;;;;;6150154;23;20080;-79
2023/06/26 11:01:12;;;;;;;7.85;6.13;;;22.10;99.90;;;;;;6151702;23;20014;-78
2023/06/26 11:03:42;;;;;;;7.53;5.70;;;22.20;99.90;;;;;;6151706;23;20009;-79
2023/06/26 11:06:15;;;;;;;6.80;6.00;;;22.10;99.90;;;;;;6149688;23;20006;-78
2023/06/26 11:08:46;;;;;;;8.60;6.80;;;22.30;99.90;;;;;;6150290;23;20447;-79
2023/06/26 11:11:11;;;;;;;9.02;7.13;;;22.30;99.90;;;;;;6152361;23;20527;-78
2023/06/26 11:13:37;;;;;;;10.05;7.72;;;22.30;99.90;;;;;;6151422;23;20037;-78
2023/06/26 11:16:05;;;;;;;9.38;7.97;;;22.50;99.90;;;;;;6149154;23;20013;-79
2023/06/26 11:18:31;;;;;;;8.52;7.65;;;22.40;99.90;;;;;;6174380;23;20056;-79
2023/06/26 11:21:05;;;;;;;9.77;7.53;;;22.30;99.90;;;;;;6174913;23;20002;-78
2023/06/26 11:23:33;;;;;;;15.13;7.80;;;22.30;99.90;;;;;;6150188;23;20239;-79
2023/06/26 11:26:21;;;;;;;8.80;7.38;;;22.50;99.90;;;;;;6151467;23;20419;-78
2023/06/26 11:28:52;;;;;;;9.85;6.30;;;22.50;99.90;;;;;;6150394;23;20009;-78
2023/06/26 11:31:38;;;;;;;7.82;5.70;;;22.50;99.90;;;;;;6150753;23;20040;-79
2023/06/26 11:34:07;;;;;;;10.07;6.00;;;22.60;99.90;;;;;;6149214;23;20636;-80
2023/06/26 11:36:36;;;;;;;8.23;5.30;;;22.60;99.90;;;;;;6149482;23;20388;-78
2023/06/26 11:39:05;;;;;;;6.60;4.63;;;22.60;99.90;;;;;;6149241;23;20050;-77
2023/06/26 11:41:32;;;;;;;8.40;4.60;;;22.70;99.90;;;;;;6151952;23;20017;-78
2023/06/26 11:44:06;;;;;;;8.68;3.92;;;22.60;99.90;;;;;;6151963;23;20008;-81
2023/06/26 11:46:33;;;;;;;10.15;3.67;;;22.50;99.90;;;;;;6127515;23;20092;-79
2023/06/26 11:48:59;;;;;;;6.78;2.95;;;22.40;99.90;;;;;;6153715;23;19997;-80
2023/06/26 11:51:28;;;;;;;6.63;2.85;;;22.20;99.90;;;;;;6151191;23;20039;-80
2023/06/26 11:53:53;;;;;;;5.53;2.70;;;22.10;99.90;;;;;;6175711;23;20067;-83
2023/06/26 11:56:22;;;;;;;6.35;1.90;;;22.10;99.90;;;;;;6176513;23;20172;-79
2023/06/26 11:59:00;;;;;;;4.55;1.58;;;22.10;99.90;;;;;;6176079;23;20012;-81
2023/06/26 12:01:38;;;;;;;6.72;1.90;;;22.30;99.90;;;;;;6153229;23;20016;-83
2023/06/26 12:04:09;;;;;;;9.07;2.38;;;22.30;99.90;;;;;;6154088;23;20056;-82
2023/06/26 12:06:37;;;;;;;4.10;2.00;;;22.30;99.90;;;;;;6165163;23;20001;-80
2023/06/26 12:09:05;;;;;;;4.47;2.00;;;22.40;99.90;;;;;;6165248;23;20016;-80
2023/06/26 12:11:34;;;;;;;7.40;2.58;;;22.60;99.90;;;;;;6166678;23;20002;-82
2023/06/26 12:14:00;;;;;;;4.28;2.20;;;22.70;99.90;;;;;;6155085;23;20035;-83
2023/06/26 12:16:28;;;;;;;6.20;1.83;;;22.80;99.90;;;;;;6154624;23;20005;-82
2023/06/26 12:19:05;;;;;;;6.88;2.10;;;22.90;99.90;;;;;;6153957;23;20029;-82
2023/06/26 12:21:36;;;;;;;5.50;2.63;;;22.60;99.90;;;;;;6156030;23;20063;-81
2023/06/26 12:24:03;;;;;;;4.07;2.13;;;22.60;99.90;;;;;;6154084;23;20065;-79
2023/06/26 12:26:33;;;;;;;6.53;3.08;;;22.70;99.90;;;;;;6151370;23;20084;-79
2023/06/26 12:29:18;;;;;;;6.22;2.88;;;22.80;99.90;;;;;;6151898;23;20005;-82
2023/06/26 12:31:48;;;;;;;6.97;2.97;;;22.80;99.90;;;;;;6150005;23;20032;-80
2023/06/26 12:34:18;;;;;;;7.05;2.28;;;22.80;99.90;;;;;;6148616;23;20002;-84
2023/06/26 12:36:48;;;;;;;6.95;2.88;;;23.00;99.90;;;;;;6151828;23;20081;-80
2023/06/26 12:39:21;;;;;;;3.78;2.35;;;23.00;99.90;;;;;;6150638;23;20006;-79
2023/06/26 12:41:48;;;;;;;5.15;2.42;;;23.10;99.90;;;;;;6152031;23;20081;-79
2023/06/26 12:44:28;;;;;;;6.03;1.98;;;23.10;99.90;;;;;;6151064;23;19998;-81
2023/06/26 12:46:58;;;;;;;3.53;1.70;;;23.10;99.90;;;;;;6149035;23;20088;-82